Nearby METAR Reports

 

KHFD - Hartford/Brainar, Connecticut, USA
Distance from station: ESE 5mi, 8km
Updated: Sun, 02-Oct-2022 2:53pm EDT
Mostly cloudy
Mostly cloudy
 Wind from NNE
Wind: NNE 16 mph , 26 km/h, Gust: 22 mph , 35 km/h
Temperature: 55°F , 13°C
Dew Point: 36°F , 2°C
Humidity: 47%
Barometer: 30.19 inHg , 1022.4 hPa
Clouds: Mostly cloudy
Visibility: 10 miles , 16 km
Cloud details: Mostly cloudy 11000 ft
2022/10/02 18:53 KHFD 021853Z 02014G19KT 10SM BKN110 13/02 A3019 RMK AO2 PK WND 01026/1814 SLP222 T01330017 $
KBDL - Windsor Locks, Connecticut, USA
Distance from station: NNE 12mi, 20km
Updated: Sun, 02-Oct-2022 2:51pm EDT
Mostly cloudy
Mostly cloudy
 Wind from NE
Wind: NE 16 mph , 26 km/h, Gust: 28 mph , 44 km/h
Temperature: 55°F , 13°C
Dew Point: 34°F , 1°C
Humidity: 44%
Barometer: 30.20 inHg , 1022.7 hPa
Clouds: Mostly cloudy
Visibility: 10 miles , 16 km
Cloud details: Few Clouds 4200 ft
Partly cloudy 10000 ft
Mostly cloudy 17000 ft
Mostly cloudy 25000 ft
2022/10/02 18:51 KBDL 021851Z 04014G24KT 10SM FEW042 SCT100 BKN170 BKN250 13/01 A3020 RMK AO2 SLP226 T01330006 $
 
KMMK - Meriden, Connecticut, USA
Distance from station: SSW 18mi, 28km
Updated: Sun, 02-Oct-2022 2:53pm EDT
Overcast
Overcast
 Wind from NNE
Wind: NNE 13 mph , 20 km/h, Gust: 20 mph , 31 km/h
Temperature: 55°F , 13°C
Dew Point: 36°F , 2°C
Humidity: 47%
Barometer: 30.17 inHg , 1021.7 hPa
Clouds: Overcast
Visibility: 10 miles , 16 km
Cloud details: Few Clouds 6500 ft
Overcast 10000 ft
2022/10/02 18:53 KMMK 021853Z AUTO 02011G17KT 10SM FEW065 OVC100 13/02 A3017 RMK AO2 SLP215 T01330017
KBAF - Westfield, Massachusetts, USA
Distance from station: N 28mi, 45km
Updated: Sun, 02-Oct-2022 2:53pm EDT
Few Clouds
Few Clouds
 Wind from NNE
Wind: NNE 18 mph , 30 km/h, Gust: 25 mph , 41 km/h
Temperature: 55°F , 13°C
Dew Point: 36°F , 2°C
Humidity: 47%
Barometer: 30.20 inHg , 1022.7 hPa
Clouds: Few Clouds
Visibility: 10 miles , 16 km
Cloud details: Few Clouds 12000 ft
2022/10/02 18:53 KBAF 021853Z 02016G22KT 10SM FEW120 13/02 A3020 RMK AO2 SLP228 T01330022
 
KIJD - Willimantic, Connecticut, USA
Distance from station: E 29mi, 46km
Updated: Sun, 02-Oct-2022 2:52pm EDT
Partly cloudy
Partly cloudy
 Wind from NE
Wind: NE 15 mph , 24 km/h, Gust: 25 mph , 41 km/h
Temperature: 54°F , 12°C
Dew Point: 34°F , 1°C
Humidity: 47%
Barometer: 30.18 inHg , 1022 hPa
Clouds: Partly cloudy
Visibility: 10 miles , 16 km
Cloud details: Partly cloudy 10000 ft
2022/10/02 18:52 KIJD 021852Z AUTO 05013G22KT 10SM SCT100 12/01 A3018 RMK AO2 PK WND 04026/1840 SLP219 T01220006 $
KOXC - Oxford/Waterbury, Connecticut, USA
Distance from station: SW 29mi, 46km
Updated: Sun, 02-Oct-2022 2:51pm EDT
Mostly cloudy
Mostly cloudy
 Wind from NNE
Wind: NNE 21 mph , 33 km/h, Gust: 31 mph , 50 km/h
Temperature: 52°F , 11°C
Dew Point: 36°F , 2°C
Humidity: 54%
Barometer: 30.15 inHg , 1021 hPa
Clouds: Mostly cloudy
Visibility: 10 miles , 16 km
Cloud details: Few Clouds 3100 ft
Mostly cloudy 10000 ft
2022/10/02 18:51 KOXC 021851Z 03018G27KT 10SM FEW031 BKN100 11/02 A3015 RMK AO2 PK WND 05027/1848 SLP224 T01110022
 
KSNC - Chester, Connecticut, USA
Distance from station: SSE 29mi, 47km
Updated: Sun, 02-Oct-2022 3:35pm EDT
Partly cloudy
Partly cloudy
 Wind from NNE
Wind: NNE 15 mph , 24 km/h, Gust: 22 mph , 35 km/h
Temperature: 55°F , 13°C
Dew Point: 36°F , 2°C
Humidity: 47%
Barometer: 30.14 inHg , 1020.7 hPa
Clouds: Partly cloudy
Visibility: 10 miles , 16 km
Cloud details: Partly cloudy 8000 ft
2022/10/02 19:35 KSNC 021935Z AUTO 03013G19KT 350V060 10SM SCT080 13/02 A3014 RMK AO2
KCEF - Chicopee/Westove, Massachusetts, USA
Distance from station: NNE 32mi, 52km
Updated: Sun, 02-Oct-2022 2:55pm EDT
Mostly cloudy
Mostly cloudy
 Wind from NE
Wind: NE 14 mph , 22 km/h, Gust: 24 mph , 39 km/h
Temperature: 55°F , 13°C
Dew Point: 34°F , 1°C
Humidity: 44%
Barometer: 30.19 inHg , 1022.4 hPa
Clouds: Mostly cloudy
Visibility: 10 miles , 16 km
Cloud details: Few Clouds 4500 ft
Mostly cloudy 12000 ft
Mostly cloudy 20000 ft
2022/10/02 18:55 KCEF 021855Z 05012G21KT 10SM FEW045 BKN120 BKN200 13/01 A3019 RMK AO2A SLP230 T01310005
 
KHVN - New Haven/Tweed, Connecticut, USA
Distance from station: S 35mi, 56km
Updated: Sun, 02-Oct-2022 2:53pm EDT
Overcast
Overcast
 Wind from NNE
Wind: NNE 21 mph , 33 km/h, Gust: 28 mph , 44 km/h
Temperature: 59°F , 15°C
Dew Point: 39°F , 4°C
Humidity: 48%
Barometer: 30.14 inHg , 1020.7 hPa
Clouds: Overcast
Visibility: 10 miles , 16 km
Cloud details: Overcast 8000 ft
2022/10/02 18:53 KHVN 021853Z 03018G24KT 10SM OVC080 15/04 A3014 RMK AO2 SLP204 T01500044 $
KBDR - Bridgeport, Connecticut, USA
Distance from station: SSW 46mi, 74km
Updated: Sun, 02-Oct-2022 2:52pm EDT
Overcast
Overcast
 Wind from NE
Wind: NE 21 mph , 33 km/h, Gust: 33 mph , 54 km/h
Temperature: 57°F , 14°C
Dew Point: 39°F , 4°C
Humidity: 51%
Barometer: 30.13 inHg , 1020.3 hPa
Clouds: Overcast
Visibility: 10 miles , 16 km
Cloud details: Overcast 7500 ft
2022/10/02 18:52 KBDR 021852Z 04018G29KT 10SM OVC075 14/04 A3013 RMK AO2 PK WND 03029/1845 SLP202 T01440044
 
KGON - Groton/New Londo, Connecticut, USA
Distance from station: SE 46mi, 75km
Updated: Sun, 02-Oct-2022 2:56pm EDT
Overcast
Overcast
 Wind from NNE
Wind: NNE 20 mph , 31 km/h, Gust: 31 mph , 50 km/h
Temperature: 57°F , 14°C
Dew Point: 37°F , 3°C
Humidity: 48%
Barometer: 30.13 inHg , 1020.3 hPa
Clouds: Overcast
Visibility: 10 miles , 16 km
Cloud details: Overcast 7500 ft
2022/10/02 18:56 KGON 021856Z 03017G27KT 10SM OVC075 14/03 A3013 RMK AO2 PK WND 04028/1827 SLP203 T01440033
KDXR - Danbury, Connecticut, USA
Distance from station: SW 47mi, 76km
Updated: Sun, 02-Oct-2022 2:53pm EDT
Overcast
Overcast
 Wind from NNE
Wind: NNE 14 mph , 22 km/h, Gust: 21 mph , 33 km/h
Temperature: 55°F , 13°C
Dew Point: 36°F , 2°C
Humidity: 47%
Barometer: 30.16 inHg , 1021.3 hPa
Clouds: Overcast
Visibility: 10 miles , 16 km
Cloud details: Overcast 12000 ft
2022/10/02 18:53 KDXR 021853Z 03012G18KT 10SM OVC120 13/02 A3016 RMK AO2 SLP212 T01330022
 
KPSF - Pittsfield, Massachusetts, USA
Distance from station: NNW 54mi, 87km
Updated: Sun, 02-Oct-2022 2:54pm EDT
Mostly cloudy
Mostly cloudy
 Wind from NNE
Wind: NNE 13 mph , 20 km/h
Temperature: 54°F , 12°C
Dew Point: 41°F , 5°C
Humidity: 63%
Barometer: 30.18 inHg , 1022 hPa
Clouds: Mostly cloudy
Visibility: 10 miles , 16 km
Cloud details: Mostly cloudy 3500 ft
2022/10/02 18:54 KPSF 021854Z AUTO 02011KT 10SM BKN035 12/05 A3018 RMK AO2 SLP213 T01220050
KWST - Westerly, Rhode Island, USA
Distance from station: ESE 56mi, 91km
Updated: Sun, 02-Oct-2022 2:53pm EDT
Overcast
Overcast
 Wind from NE
Wind: NE 15 mph , 24 km/h, Gust: 30 mph , 48 km/h
Temperature: 55°F , 13°C
Dew Point: 39°F , 4°C
Humidity: 55%
Barometer: 30.13 inHg , 1020.3 hPa
Clouds: Overcast
Visibility: 10 miles , 16 km
Cloud details: Overcast 7500 ft
2022/10/02 18:53 KWST 021853Z AUTO 04013G26KT 10SM OVC075 13/04 A3013 RMK AO2 PK WND 03026/1848 SLP203 T01330044 $
 
KORH - Worcester, Massachusetts, USA
Distance from station: NE 57mi, 92km
Updated: Sun, 02-Oct-2022 2:54pm EDT
Clear
Clear
 Wind from NE
Wind: NE 13 mph , 20 km/h, Gust: 25 mph , 41 km/h
Temperature: 50°F , 10°C
Wind Chill: 45°F , 7°C
Dew Point: 28°F , -2°C
Humidity: 43%
Barometer: 30.20 inHg , 1022.7 hPa
Clouds: Clear
Visibility: 10 miles , 16 km
2022/10/02 18:54 KORH 021854Z 05011G22KT 10SM CLR 10/M02 A3020 RMK AO2 SLP230 T01001022
KPOU - Poughkeepsie, New York, USA
Distance from station: W 60mi, 96km
Updated: Sun, 02-Oct-2022 2:53pm EDT
Clear
Clear
 Wind from N
Wind: N 8 mph , 13 km/h, Gust: 20 mph , 31 km/h
Temperature: 57°F , 14°C
Dew Point: 46°F , 8°C
Humidity: 67%
Barometer: 30.16 inHg , 1021.3 hPa
Clouds: Clear
Visibility: 10 miles , 16 km
2022/10/02 18:53 KPOU 021853Z 36007G17KT 10SM CLR 14/08 A3016 RMK AO2 SLP208 T01390083
 
KORE - Orange, Massachusetts, USA
Distance from station: NNE 60mi, 97km
Updated: Sun, 02-Oct-2022 2:52pm EDT
Clear
Clear
 Wind from NNE
Wind: NNE 13 mph , 20 km/h
Temperature: 55°F , 13°C
Dew Point: 30°F , -1°C
Humidity: 38%
Barometer: 30.24 inHg , 1024 hPa
Clouds: Clear
Visibility: 10 miles , 16 km
2022/10/02 18:52 KORE 021852Z AUTO 03011KT 10SM CLR 13/M01 A3024 RMK AO2 SLP242 T01281011
KHTO - East Hampton, New York, USA
Distance from station: SSE 62mi, 99km
Updated: Sat, 21-May-2022 1:35pm EDT
NOT Current
Clear
Clear
 Wind from WNW
Wind: WNW 5 mph , 7 km/h
Temperature: 81°F , 27°C
Heat Index: 83°F , 28°C
Dew Point: 66°F , 19°C
Humidity: 62%
Barometer: 30.00 inHg , 1015.9 hPa
Clouds: Clear
Visibility: 10 miles , 16 km
2022/05/21 17:35 KHTO 211735Z AUTO 30004KT 10SM CLR 27/19 A3000 RMK AO2 T02670193
 
KFOK - Westhampton Beac, New York, USA
Distance from station: S 63mi, 102km
Updated: Sun, 02-Oct-2022 2:53pm EDT
Overcast
Overcast
 Wind from NE
Wind: NE 29 mph , 46 km/h, Gust: 39 mph , 63 km/h
Temperature: 57°F , 14°C
Dew Point: 45°F , 7°C
Humidity: 63%
Barometer: 30.09 inHg , 1019 hPa
Clouds: Overcast
Visibility: 10 miles , 16 km
Cloud details: Mostly cloudy 6000 ft
Overcast 7500 ft
2022/10/02 18:53 KFOK 021853Z 04025G34KT 10SM BKN060 OVC075 14/07 A3009 RMK AO2 PK WND 03034/1812 SLP189 T01440067
KMTP - Montauk, New York, USA
Distance from station: SE 64mi, 104km
Updated: Sun, 02-Oct-2022 2:54pm EDT

 Wind from NE
Wind: NE 15 mph , 24 km/h, Gust: 24 mph , 39 km/h
Temperature: 57°F , 14°C
Dew Point: 45°F , 7°C
Humidity: 63%
Barometer: 30.13 inHg , 1020.3 hPa
2022/10/02 18:54 KMTP 021854Z AUTO 04013G21KT 14/07 A3013 RMK AO1 SLP203 T01390067 $